ENSB/LYR METAR and TAF weather

Enter ICAO airport designator
Station Type Date Time Source
ENSB METAR 2019/06/18 14:50 UTC NOAA

ENSB 181450Z 32011KT 9999 FEW025 07/01 Q1009 RMK WIND 1400FT 31006KT


Station Type Date Time Source
ENSB Decoded METAR 2019/06/18 14:50 UTC NOAA

Svalbard Lufthavn, Norway (ENSB) 78-15N 015-28E 29M
Jun 18, 2019 - 10:50 AM EDT / 2019.06.18 1450 UTC
Wind: from the NW (320 degrees) at 13 MPH (11 KT):0
Visibility: greater than 7 mile(s):0
Sky conditions: mostly clear
Temperature: 44 F (7 C)
Dew Point: 33 F (1 C)
Relative Humidity: 65%
Pressure (altimeter): 29.80 in. Hg (1009 hPa)
ob: ENSB 181450Z 32011KT 9999 FEW025 07/01 Q1009 RMK WIND 1400FT 31006KT
cycle: 15

Station Type Date Time Source
ENSB TAF 2019/06/18 12:57 UTC NOAA

TAF ENSB 181100Z 1812/1912 28010KT 9999 FEW020 SCT050

Example: see airport list